sensor_id;sensor_type;location;lat;lon;timestamp;temperature;humidity
19435;DHT22;9853;50.848;4.108;2023-11-21T00:00:32;10.20;99.90
19435;DHT22;9853;50.848;4.108;2023-11-21T00:02:33;10.00;99.90
19435;DHT22;9853;50.848;4.108;2023-11-21T00:04:33;9.90;99.90
19435;DHT22;9853;50.848;4.108;2023-11-21T00:06:34;9.80;99.90
19435;DHT22;9853;50.848;4.108;2023-11-21T00:08:36;9.70;99.90
19435;DHT22;9853;50.848;4.108;2023-11-21T00:10:36;9.60;99.90
19435;DHT22;9853;50.848;4.108;2023-11-21T00:12:39;9.60;99.90
19435;DHT22;9853;50.848;4.108;2023-11-21T00:14:42;9.50;99.90
19435;DHT22;9853;50.848;4.108;2023-11-21T00:16:43;9.40;99.90
19435;DHT22;9853;50.848;4.108;2023-11-21T00:18:44;9.40;99.90
19435;DHT22;9853;50.848;4.108;2023-11-21T00:20:47;9.40;99.90
19435;DHT22;9853;50.848;4.108;2023-11-21T00:22:47;9.40;99.90
19435;DHT22;9853;50.848;4.108;2023-11-21T00:24:48;9.40;99.90
19435;DHT22;9853;50.848;4.108;2023-11-21T00:26:49;9.40;99.90
19435;DHT22;9853;50.848;4.108;2023-11-21T00:28:50;9.50;99.90
19435;DHT22;9853;50.848;4.108;2023-11-21T00:30:51;9.50;99.90
19435;DHT22;9853;50.848;4.108;2023-11-21T00:32:52;9.50;99.90
19435;DHT22;9853;50.848;4.108;2023-11-21T00:34:53;9.40;99.90
19435;DHT22;9853;50.848;4.108;2023-11-21T00:36:55;9.40;99.90
19435;DHT22;9853;50.848;4.108;2023-11-21T00:38:56;9.40;99.90
19435;DHT22;9853;50.848;4.108;2023-11-21T00:40:58;9.40;99.90
19435;DHT22;9853;50.848;4.108;2023-11-21T00:42:58;9.40;99.90
19435;DHT22;9853;50.848;4.108;2023-11-21T00:44:59;9.40;99.90
19435;DHT22;9853;50.848;4.108;2023-11-21T00:47:00;9.50;99.90
19435;DHT22;9853;50.848;4.108;2023-11-21T00:49:01;9.60;99.90
19435;DHT22;9853;50.848;4.108;2023-11-21T00:51:04;9.60;99.90
19435;DHT22;9853;50.848;4.108;2023-11-21T00:53:06;9.70;99.90
19435;DHT22;9853;50.848;4.108;2023-11-21T00:55:09;9.80;99.90
19435;DHT22;9853;50.848;4.108;2023-11-21T00:57:10;9.80;99.90
19435;DHT22;9853;50.848;4.108;2023-11-21T00:59:12;9.90;99.90
19435;DHT22;9853;50.848;4.108;2023-11-21T01:01:16;10.00;99.90
19435;DHT22;9853;50.848;4.108;2023-11-21T01:03:17;10.20;99.90
19435;DHT22;9853;50.848;4.108;2023-11-21T01:05:17;10.20;99.90
19435;DHT22;9853;50.848;4.108;2023-11-21T01:07:18;10.30;99.90
19435;DHT22;9853;50.848;4.108;2023-11-21T01:09:20;10.30;99.90
19435;DHT22;9853;50.848;4.108;2023-11-21T01:11:21;10.30;99.90
19435;DHT22;9853;50.848;4.108;2023-11-21T01:13:22;10.00;99.90
19435;DHT22;9853;50.848;4.108;2023-11-21T01:15:23;10.00;99.90
19435;DHT22;9853;50.848;4.108;2023-11-21T01:17:26;9.90;99.90
19435;DHT22;9853;50.848;4.108;2023-11-21T01:19:27;9.90;99.90
19435;DHT22;9853;50.848;4.108;2023-11-21T01:21:29;10.00;99.90
19435;DHT22;9853;50.848;4.108;2023-11-21T01:23:31;10.10;99.90
19435;DHT22;9853;50.848;4.108;2023-11-21T01:25:32;10.00;99.90
19435;DHT22;9853;50.848;4.108;2023-11-21T01:27:36;10.00;99.90
19435;DHT22;9853;50.848;4.108;2023-11-21T01:29:37;10.10;99.90
19435;DHT22;9853;50.848;4.108;2023-11-21T01:31:38;10.00;99.90
19435;DHT22;9853;50.848;4.108;2023-11-21T01:33:39;9.90;99.90
19435;DHT22;9853;50.848;4.108;2023-11-21T01:35:39;10.00;99.90
19435;DHT22;9853;50.848;4.108;2023-11-21T01:37:40;10.00;99.90
19435;DHT22;9853;50.848;4.108;2023-11-21T01:39:41;9.90;99.90
19435;DHT22;9853;50.848;4.108;2023-11-21T01:41:42;9.90;99.90
19435;DHT22;9853;50.848;4.108;2023-11-21T01:43:44;10.00;99.90
19435;DHT22;9853;50.848;4.108;2023-11-21T01:45:45;10.10;99.90
19435;DHT22;9853;50.848;4.108;2023-11-21T01:47:46;10.10;99.90
19435;DHT22;9853;50.848;4.108;2023-11-21T01:49:47;10.10;99.90
19435;DHT22;9853;50.848;4.108;2023-11-21T01:51:49;10.20;99.90
19435;DHT22;9853;50.848;4.108;2023-11-21T01:53:52;10.30;99.90
19435;DHT22;9853;50.848;4.108;2023-11-21T01:55:53;10.20;99.90
19435;DHT22;9853;50.848;4.108;2023-11-21T01:57:56;10.40;99.90
19435;DHT22;9853;50.848;4.108;2023-11-21T02:00:02;10.50;99.90
19435;DHT22;9853;50.848;4.108;2023-11-21T02:02:15;10.60;99.90
19435;DHT22;9853;50.848;4.108;2023-11-21T02:04:16;10.60;99.90
19435;DHT22;9853;50.848;4.108;2023-11-21T02:06:18;10.60;99.90
19435;DHT22;9853;50.848;4.108;2023-11-21T02:08:20;10.60;99.90
19435;DHT22;9853;50.848;4.108;2023-11-21T02:10:21;10.60;99.90
19435;DHT22;9853;50.848;4.108;2023-11-21T02:12:24;10.70;99.90
19435;DHT22;9853;50.848;4.108;2023-11-21T02:14:27;10.60;99.90
19435;DHT22;9853;50.848;4.108;2023-11-21T02:16:28;10.60;99.90
19435;DHT22;9853;50.848;4.108;2023-11-21T02:18:31;10.60;99.90
19435;DHT22;9853;50.848;4.108;2023-11-21T02:20:32;10.60;99.90
19435;DHT22;9853;50.848;4.108;2023-11-21T02:22:38;10.60;99.90
19435;DHT22;9853;50.848;4.108;2023-11-21T02:24:41;10.50;99.90
19435;DHT22;9853;50.848;4.108;2023-11-21T02:26:43;10.50;99.90
19435;DHT22;9853;50.848;4.108;2023-11-21T02:28:43;10.60;99.90
19435;DHT22;9853;50.848;4.108;2023-11-21T02:30:44;10.60;99.90
19435;DHT22;9853;50.848;4.108;2023-11-21T02:32:45;10.60;99.90
19435;DHT22;9853;50.848;4.108;2023-11-21T02:34:46;10.60;99.90
19435;DHT22;9853;50.848;4.108;2023-11-21T02:36:47;10.60;99.90
19435;DHT22;9853;50.848;4.108;2023-11-21T02:38:51;10.70;99.90
19435;DHT22;9853;50.848;4.108;2023-11-21T02:40:52;10.70;99.90
19435;DHT22;9853;50.848;4.108;2023-11-21T02:42:54;10.70;99.90
19435;DHT22;9853;50.848;4.108;2023-11-21T02:44:55;10.70;99.90
19435;DHT22;9853;50.848;4.108;2023-11-21T02:46:55;10.60;99.90
19435;DHT22;9853;50.848;4.108;2023-11-21T02:48:58;10.70;99.90
19435;DHT22;9853;50.848;4.108;2023-11-21T02:50:59;10.70;99.90
19435;DHT22;9853;50.848;4.108;2023-11-21T02:52:59;10.60;99.90
19435;DHT22;9853;50.848;4.108;2023-11-21T02:55:04;10.60;99.90
19435;DHT22;9853;50.848;4.108;2023-11-21T02:57:05;10.50;99.90
19435;DHT22;9853;50.848;4.108;2023-11-21T02:59:06;10.40;99.90
19435;DHT22;9853;50.848;4.108;2023-11-21T03:01:07;10.40;99.90
19435;DHT22;9853;50.848;4.108;2023-11-21T03:03:07;10.40;99.90
19435;DHT22;9853;50.848;4.108;2023-11-21T03:05:08;10.50;99.90
19435;DHT22;9853;50.848;4.108;2023-11-21T03:07:09;10.50;99.90
19435;DHT22;9853;50.848;4.108;2023-11-21T03:09:11;10.50;99.90
19435;DHT22;9853;50.848;4.108;2023-11-21T03:11:14;10.50;99.90
19435;DHT22;9853;50.848;4.108;2023-11-21T03:13:15;10.50;99.90
19435;DHT22;9853;50.848;4.108;2023-11-21T03:15:16;10.50;99.90
19435;DHT22;9853;50.848;4.108;2023-11-21T03:17:17;10.40;99.90
19435;DHT22;9853;50.848;4.108;2023-11-21T03:19:18;10.20;99.90
19435;DHT22;9853;50.848;4.108;2023-11-21T03:21:19;10.20;99.90
19435;DHT22;9853;50.848;4.108;2023-11-21T03:23:19;10.20;99.90
19435;DHT22;9853;50.848;4.108;2023-11-21T03:25:20;10.20;99.90
19435;DHT22;9853;50.848;4.108;2023-11-21T03:27:24;10.30;99.90
19435;DHT22;9853;50.848;4.108;2023-11-21T03:29:25;10.40;99.90
19435;DHT22;9853;50.848;4.108;2023-11-21T03:31:26;10.50;99.90
19435;DHT22;9853;50.848;4.108;2023-11-21T03:33:28;10.50;99.90
19435;DHT22;9853;50.848;4.108;2023-11-21T03:35:28;10.60;99.90
19435;DHT22;9853;50.848;4.108;2023-11-21T03:37:29;10.60;99.90
19435;DHT22;9853;50.848;4.108;2023-11-21T03:39:30;10.40;99.90
19435;DHT22;9853;50.848;4.108;2023-11-21T03:41:31;10.40;99.90
19435;DHT22;9853;50.848;4.108;2023-11-21T03:43:31;10.40;99.90
19435;DHT22;9853;50.848;4.108;2023-11-21T03:45:32;10.40;99.90
19435;DHT22;9853;50.848;4.108;2023-11-21T03:47:34;10.40;99.90
19435;DHT22;9853;50.848;4.108;2023-11-21T03:49:35;10.40;99.90
19435;DHT22;9853;50.848;4.108;2023-11-21T03:51:36;10.40;99.90
19435;DHT22;9853;50.848;4.108;2023-11-21T03:53:38;10.40;99.90
19435;DHT22;9853;50.848;4.108;2023-11-21T03:55:38;10.50;99.90
19435;DHT22;9853;50.848;4.108;2023-11-21T03:57:39;10.40;99.90
19435;DHT22;9853;50.848;4.108;2023-11-21T03:59:40;10.40;99.90
19435;DHT22;9853;50.848;4.108;2023-11-21T04:01:42;10.40;99.90
19435;DHT22;9853;50.848;4.108;2023-11-21T04:03:42;10.40;99.90
19435;DHT22;9853;50.848;4.108;2023-11-21T04:05:43;10.50;99.90
19435;DHT22;9853;50.848;4.108;2023-11-21T04:07:44;10.60;99.90
19435;DHT22;9853;50.848;4.108;2023-11-21T04:09:45;10.70;99.90
19435;DHT22;9853;50.848;4.108;2023-11-21T04:11:45;10.60;99.90
19435;DHT22;9853;50.848;4.108;2023-11-21T04:13:46;10.70;99.90
19435;DHT22;9853;50.848;4.108;2023-11-21T04:15:47;10.70;99.90
19435;DHT22;9853;50.848;4.108;2023-11-21T04:17:48;10.70;99.90
19435;DHT22;9853;50.848;4.108;2023-11-21T04:19:49;10.60;99.90
19435;DHT22;9853;50.848;4.108;2023-11-21T04:21:49;10.70;99.90
19435;DHT22;9853;50.848;4.108;2023-11-21T04:23:50;10.70;99.90
19435;DHT22;9853;50.848;4.108;2023-11-21T04:25:51;10.60;99.90
19435;DHT22;9853;50.848;4.108;2023-11-21T04:27:52;10.60;99.90
19435;DHT22;9853;50.848;4.108;2023-11-21T04:29:53;10.60;99.90
19435;DHT22;9853;50.848;4.108;2023-11-21T04:31:54;10.60;99.90
19435;DHT22;9853;50.848;4.108;2023-11-21T04:33:55;10.40;99.90
19435;DHT22;9853;50.848;4.108;2023-11-21T04:35:55;10.60;99.90
19435;DHT22;9853;50.848;4.108;2023-11-21T04:37:56;10.60;99.90
19435;DHT22;9853;50.848;4.108;2023-11-21T04:39:57;10.60;99.90
19435;DHT22;9853;50.848;4.108;2023-11-21T04:41:58;10.70;99.90
19435;DHT22;9853;50.848;4.108;2023-11-21T04:43:59;10.80;99.90
19435;DHT22;9853;50.848;4.108;2023-11-21T04:46:01;10.80;99.90
19435;DHT22;9853;50.848;4.108;2023-11-21T04:48:03;10.80;99.90
19435;DHT22;9853;50.848;4.108;2023-11-21T04:50:04;10.80;99.90
19435;DHT22;9853;50.848;4.108;2023-11-21T04:52:06;10.80;99.90
19435;DHT22;9853;50.848;4.108;2023-11-21T04:54:08;10.60;99.90
19435;DHT22;9853;50.848;4.108;2023-11-21T04:56:08;10.70;99.90
19435;DHT22;9853;50.848;4.108;2023-11-21T04:58:09;10.80;99.90
19435;DHT22;9853;50.848;4.108;2023-11-21T05:00:12;10.80;99.90
19435;DHT22;9853;50.848;4.108;2023-11-21T05:02:13;10.80;99.90
19435;DHT22;9853;50.848;4.108;2023-11-21T05:04:14;10.70;99.90
19435;DHT22;9853;50.848;4.108;2023-11-21T05:06:15;10.70;99.90
19435;DHT22;9853;50.848;4.108;2023-11-21T05:08:16;10.80;99.90
19435;DHT22;9853;50.848;4.108;2023-11-21T05:10:17;10.80;99.90
19435;DHT22;9853;50.848;4.108;2023-11-21T05:12:18;10.80;99.90
19435;DHT22;9853;50.848;4.108;2023-11-21T05:14:19;10.70;99.90
19435;DHT22;9853;50.848;4.108;2023-11-21T05:16:20;10.70;99.90
19435;DHT22;9853;50.848;4.108;2023-11-21T05:18:20;10.70;99.90
19435;DHT22;9853;50.848;4.108;2023-11-21T05:20:21;10.80;99.90
19435;DHT22;9853;50.848;4.108;2023-11-21T05:22:22;10.80;99.90
19435;DHT22;9853;50.848;4.108;2023-11-21T05:24:23;10.90;99.90
19435;DHT22;9853;50.848;4.108;2023-11-21T05:26:23;10.90;99.90
19435;DHT22;9853;50.848;4.108;2023-11-21T05:28:25;11.00;99.90
19435;DHT22;9853;50.848;4.108;2023-11-21T05:30:26;11.00;99.90
19435;DHT22;9853;50.848;4.108;2023-11-21T05:32:27;11.00;99.90
19435;DHT22;9853;50.848;4.108;2023-11-21T05:34:28;11.10;99.90
19435;DHT22;9853;50.848;4.108;2023-11-21T05:36:28;11.10;99.90
19435;DHT22;9853;50.848;4.108;2023-11-21T05:38:30;11.10;99.90
19435;DHT22;9853;50.848;4.108;2023-11-21T05:40:30;11.00;99.90
19435;DHT22;9853;50.848;4.108;2023-11-21T05:42:32;11.00;99.90
19435;DHT22;9853;50.848;4.108;2023-11-21T05:44:33;10.90;99.90
19435;DHT22;9853;50.848;4.108;2023-11-21T05:46:35;11.00;99.90
19435;DHT22;9853;50.848;4.108;2023-11-21T05:48:36;11.10;99.90
19435;DHT22;9853;50.848;4.108;2023-11-21T05:50:39;11.10;99.90
19435;DHT22;9853;50.848;4.108;2023-11-21T05:52:41;11.10;99.90
19435;DHT22;9853;50.848;4.108;2023-11-21T05:54:42;11.00;99.90
19435;DHT22;9853;50.848;4.108;2023-11-21T05:56:43;11.00;99.90
19435;DHT22;9853;50.848;4.108;2023-11-21T05:58:43;11.00;99.90
19435;DHT22;9853;50.848;4.108;2023-11-21T06:00:44;11.00;99.90
19435;DHT22;9853;50.848;4.108;2023-11-21T06:02:46;11.00;99.90
19435;DHT22;9853;50.848;4.108;2023-11-21T06:04:46;11.00;99.90
19435;DHT22;9853;50.848;4.108;2023-11-21T06:06:47;10.80;99.90
19435;DHT22;9853;50.848;4.108;2023-11-21T06:08:51;10.70;99.90
19435;DHT22;9853;50.848;4.108;2023-11-21T06:10:51;10.80;99.90
19435;DHT22;9853;50.848;4.108;2023-11-21T06:12:53;10.80;99.90
19435;DHT22;9853;50.848;4.108;2023-11-21T06:14:53;10.80;99.90
19435;DHT22;9853;50.848;4.108;2023-11-21T06:16:54;10.80;99.90
19435;DHT22;9853;50.848;4.108;2023-11-21T06:18:57;10.70;99.90
19435;DHT22;9853;50.848;4.108;2023-11-21T06:20:57;10.80;99.90
19435;DHT22;9853;50.848;4.108;2023-11-21T06:23:01;10.80;99.90
19435;DHT22;9853;50.848;4.108;2023-11-21T06:25:05;10.80;99.90
19435;DHT22;9853;50.848;4.108;2023-11-21T06:27:06;10.70;99.90
19435;DHT22;9853;50.848;4.108;2023-11-21T06:29:06;10.80;99.90
19435;DHT22;9853;50.848;4.108;2023-11-21T06:31:07;10.80;99.90
19435;DHT22;9853;50.848;4.108;2023-11-21T06:33:08;11.00;99.90
19435;DHT22;9853;50.848;4.108;2023-11-21T06:35:09;11.10;99.90
19435;DHT22;9853;50.848;4.108;2023-11-21T06:37:10;11.20;99.90
19435;DHT22;9853;50.848;4.108;2023-11-21T06:39:12;11.20;99.90
19435;DHT22;9853;50.848;4.108;2023-11-21T06:41:15;11.20;99.90
19435;DHT22;9853;50.848;4.108;2023-11-21T06:43:16;11.10;99.90
19435;DHT22;9853;50.848;4.108;2023-11-21T06:45:18;10.90;99.90
19435;DHT22;9853;50.848;4.108;2023-11-21T06:47:20;10.80;99.90
19435;DHT22;9853;50.848;4.108;2023-11-21T06:49:21;10.80;99.90
19435;DHT22;9853;50.848;4.108;2023-11-21T06:51:22;10.70;99.90
19435;DHT22;9853;50.848;4.108;2023-11-21T06:53:22;10.80;99.90
19435;DHT22;9853;50.848;4.108;2023-11-21T06:55:23;10.90;99.90
19435;DHT22;9853;50.848;4.108;2023-11-21T06:57:24;11.00;99.90
19435;DHT22;9853;50.848;4.108;2023-11-21T06:59:25;11.10;99.90
19435;DHT22;9853;50.848;4.108;2023-11-21T07:01:26;11.10;99.90
19435;DHT22;9853;50.848;4.108;2023-11-21T07:03:26;11.10;99.90
19435;DHT22;9853;50.848;4.108;2023-11-21T07:05:27;11.10;99.90
19435;DHT22;9853;50.848;4.108;2023-11-21T07:07:28;11.20;99.90
19435;DHT22;9853;50.848;4.108;2023-11-21T07:09:29;11.20;99.90
19435;DHT22;9853;50.848;4.108;2023-11-21T07:11:31;11.20;99.90
19435;DHT22;9853;50.848;4.108;2023-11-21T07:13:33;11.20;99.90
19435;DHT22;9853;50.848;4.108;2023-11-21T07:15:34;11.10;99.90
19435;DHT22;9853;50.848;4.108;2023-11-21T07:17:38;11.00;99.90
19435;DHT22;9853;50.848;4.108;2023-11-21T07:19:39;10.90;99.90
19435;DHT22;9853;50.848;4.108;2023-11-21T07:21:40;11.00;99.90
19435;DHT22;9853;50.848;4.108;2023-11-21T07:23:41;11.00;99.90
19435;DHT22;9853;50.848;4.108;2023-11-21T07:25:42;11.10;99.90
19435;DHT22;9853;50.848;4.108;2023-11-21T07:27:43;11.20;99.90
19435;DHT22;9853;50.848;4.108;2023-11-21T07:29:45;11.20;99.90
19435;DHT22;9853;50.848;4.108;2023-11-21T07:31:45;11.30;99.90
19435;DHT22;9853;50.848;4.108;2023-11-21T07:33:46;11.30;99.90
19435;DHT22;9853;50.848;4.108;2023-11-21T07:35:50;11.30;99.90
19435;DHT22;9853;50.848;4.108;2023-11-21T07:37:51;11.00;99.90
19435;DHT22;9853;50.848;4.108;2023-11-21T07:39:51;10.90;99.90
19435;DHT22;9853;50.848;4.108;2023-11-21T07:41:56;10.80;99.90
19435;DHT22;9853;50.848;4.108;2023-11-21T07:43:58;11.00;99.90
19435;DHT22;9853;50.848;4.108;2023-11-21T07:45:59;11.10;99.90
19435;DHT22;9853;50.848;4.108;2023-11-21T07:48:00;11.20;99.90
19435;DHT22;9853;50.848;4.108;2023-11-21T07:50:04;11.20;99.90
19435;DHT22;9853;50.848;4.108;2023-11-21T07:52:05;11.30;99.90
19435;DHT22;9853;50.848;4.108;2023-11-21T07:54:05;11.30;99.90
19435;DHT22;9853;50.848;4.108;2023-11-21T07:56:07;11.30;99.90
19435;DHT22;9853;50.848;4.108;2023-11-21T07:58:08;11.40;99.90
19435;DHT22;9853;50.848;4.108;2023-11-21T08:00:09;11.40;99.90
19435;DHT22;9853;50.848;4.108;2023-11-21T08:02:15;11.40;99.90
19435;DHT22;9853;50.848;4.108;2023-11-21T08:04:18;11.30;99.90
19435;DHT22;9853;50.848;4.108;2023-11-21T08:06:19;11.40;99.90
19435;DHT22;9853;50.848;4.108;2023-11-21T08:08:20;11.50;99.90
19435;DHT22;9853;50.848;4.108;2023-11-21T08:10:21;11.40;99.90
19435;DHT22;9853;50.848;4.108;2023-11-21T08:12:22;11.40;99.90
19435;DHT22;9853;50.848;4.108;2023-11-21T08:14:23;11.10;99.90
19435;DHT22;9853;50.848;4.108;2023-11-21T08:16:25;11.10;99.90
19435;DHT22;9853;50.848;4.108;2023-11-21T08:18:26;11.20;99.90
19435;DHT22;9853;50.848;4.108;2023-11-21T08:20:27;11.40;99.90
19435;DHT22;9853;50.848;4.108;2023-11-21T08:22:28;11.40;99.90
19435;DHT22;9853;50.848;4.108;2023-11-21T08:24:30;11.60;99.90
19435;DHT22;9853;50.848;4.108;2023-11-21T08:26:30;11.70;99.90
19435;DHT22;9853;50.848;4.108;2023-11-21T08:28:31;11.80;99.90
19435;DHT22;9853;50.848;4.108;2023-11-21T08:30:32;11.60;99.90
19435;DHT22;9853;50.848;4.108;2023-11-21T08:32:33;11.50;99.90
19435;DHT22;9853;50.848;4.108;2023-11-21T08:34:34;11.60;99.90
19435;DHT22;9853;50.848;4.108;2023-11-21T08:36:34;11.70;99.90
19435;DHT22;9853;50.848;4.108;2023-11-21T08:38:35;11.70;99.90
19435;DHT22;9853;50.848;4.108;2023-11-21T08:40:38;11.90;99.90
19435;DHT22;9853;50.848;4.108;2023-11-21T08:42:39;11.90;99.90
19435;DHT22;9853;50.848;4.108;2023-11-21T08:44:40;12.00;99.90
19435;DHT22;9853;50.848;4.108;2023-11-21T08:46:41;11.60;99.90
19435;DHT22;9853;50.848;4.108;2023-11-21T08:48:42;11.50;99.90
19435;DHT22;9853;50.848;4.108;2023-11-21T08:50:44;11.60;99.90
19435;DHT22;9853;50.848;4.108;2023-11-21T08:52:45;11.70;99.90
19435;DHT22;9853;50.848;4.108;2023-11-21T08:54:46;11.60;99.90
19435;DHT22;9853;50.848;4.108;2023-11-21T08:56:48;11.50;99.90
19435;DHT22;9853;50.848;4.108;2023-11-21T08:58:50;11.60;99.90
19435;DHT22;9853;50.848;4.108;2023-11-21T09:00:51;11.70;99.90
19435;DHT22;9853;50.848;4.108;2023-11-21T09:02:51;11.60;99.90
19435;DHT22;9853;50.848;4.108;2023-11-21T09:04:52;11.60;99.90
19435;DHT22;9853;50.848;4.108;2023-11-21T09:06:53;11.60;99.90
19435;DHT22;9853;50.848;4.108;2023-11-21T09:08:54;11.60;99.90
19435;DHT22;9853;50.848;4.108;2023-11-21T09:10:55;11.60;99.90
19435;DHT22;9853;50.848;4.108;2023-11-21T09:12:56;11.80;99.90
19435;DHT22;9853;50.848;4.108;2023-11-21T09:14:57;11.80;99.90
19435;DHT22;9853;50.848;4.108;2023-11-21T09:16:58;11.90;99.90
19435;DHT22;9853;50.848;4.108;2023-11-21T09:18:58;12.00;99.90
19435;DHT22;9853;50.848;4.108;2023-11-21T09:20:59;12.00;99.90
19435;DHT22;9853;50.848;4.108;2023-11-21T09:23:00;11.90;99.90
19435;DHT22;9853;50.848;4.108;2023-11-21T09:25:01;12.00;99.90
19435;DHT22;9853;50.848;4.108;2023-11-21T09:27:05;12.00;99.90
19435;DHT22;9853;50.848;4.108;2023-11-21T09:29:06;12.10;99.90
19435;DHT22;9853;50.848;4.108;2023-11-21T09:31:09;12.00;99.90
19435;DHT22;9853;50.848;4.108;2023-11-21T09:33:10;11.70;99.90
19435;DHT22;9853;50.848;4.108;2023-11-21T09:35:11;11.70;99.90
19435;DHT22;9853;50.848;4.108;2023-11-21T09:37:14;11.60;99.90
19435;DHT22;9853;50.848;4.108;2023-11-21T09:39:15;11.40;99.90
19435;DHT22;9853;50.848;4.108;2023-11-21T09:41:23;11.40;99.90
19435;DHT22;9853;50.848;4.108;2023-11-21T09:43:28;11.50;99.90
19435;DHT22;9853;50.848;4.108;2023-11-21T09:45:39;11.70;99.90
19435;DHT22;9853;50.848;4.108;2023-11-21T09:47:40;11.80;99.90
19435;DHT22;9853;50.848;4.108;2023-11-21T09:49:41;12.40;99.90
19435;DHT22;9853;50.848;4.108;2023-11-21T09:51:43;12.30;99.90
19435;DHT22;9853;50.848;4.108;2023-11-21T09:53:44;12.10;99.90
19435;DHT22;9853;50.848;4.108;2023-11-21T09:55:49;12.50;99.90
19435;DHT22;9853;50.848;4.108;2023-11-21T09:57:53;12.80;99.90
19435;DHT22;9853;50.848;4.108;2023-11-21T09:59:55;12.70;99.90
19435;DHT22;9853;50.848;4.108;2023-11-21T10:02:07;12.50;99.90
19435;DHT22;9853;50.848;4.108;2023-11-21T10:04:11;12.50;99.90
19435;DHT22;9853;50.848;4.108;2023-11-21T10:06:13;12.40;99.90
19435;DHT22;9853;50.848;4.108;2023-11-21T10:08:14;12.50;99.90
19435;DHT22;9853;50.848;4.108;2023-11-21T10:10:18;12.50;99.90
19435;DHT22;9853;50.848;4.108;2023-11-21T10:12:20;12.60;99.90
19435;DHT22;9853;50.848;4.108;2023-11-21T10:14:24;12.50;99.90
19435;DHT22;9853;50.848;4.108;2023-11-21T10:16:26;12.70;99.90
19435;DHT22;9853;50.848;4.108;2023-11-21T10:18:28;12.70;99.90
19435;DHT22;9853;50.848;4.108;2023-11-21T10:20:30;12.60;99.90
19435;DHT22;9853;50.848;4.108;2023-11-21T10:22:33;12.70;99.90
19435;DHT22;9853;50.848;4.108;2023-11-21T10:24:34;12.80;99.90
19435;DHT22;9853;50.848;4.108;2023-11-21T10:26:35;13.00;99.90
19435;DHT22;9853;50.848;4.108;2023-11-21T10:28:37;13.10;99.90
19435;DHT22;9853;50.848;4.108;2023-11-21T10:30:39;13.20;99.90
19435;DHT22;9853;50.848;4.108;2023-11-21T10:32:41;13.00;99.90
19435;DHT22;9853;50.848;4.108;2023-11-21T10:34:42;12.90;99.90
19435;DHT22;9853;50.848;4.108;2023-11-21T10:36:43;13.20;99.90
19435;DHT22;9853;50.848;4.108;2023-11-21T10:38:44;13.40;99.90
19435;DHT22;9853;50.848;4.108;2023-11-21T10:40:46;13.50;99.90
19435;DHT22;9853;50.848;4.108;2023-11-21T10:42:47;13.30;99.90
19435;DHT22;9853;50.848;4.108;2023-11-21T10:44:48;13.10;99.90
19435;DHT22;9853;50.848;4.108;2023-11-21T10:46:52;13.30;99.90
19435;DHT22;9853;50.848;4.108;2023-11-21T10:48:56;13.10;99.90
19435;DHT22;9853;50.848;4.108;2023-11-21T10:50:57;13.30;99.90
19435;DHT22;9853;50.848;4.108;2023-11-21T10:53:00;13.00;99.90
19435;DHT22;9853;50.848;4.108;2023-11-21T10:55:01;13.20;99.90
19435;DHT22;9853;50.848;4.108;2023-11-21T10:57:04;13.50;99.90
19435;DHT22;9853;50.848;4.108;2023-11-21T10:59:05;13.40;99.90
19435;DHT22;9853;50.848;4.108;2023-11-21T11:01:07;13.60;99.90
19435;DHT22;9853;50.848;4.108;2023-11-21T11:03:09;13.60;99.90
19435;DHT22;9853;50.848;4.108;2023-11-21T11:05:16;13.50;99.90
19435;DHT22;9853;50.848;4.108;2023-11-21T11:07:21;13.50;99.90
19435;DHT22;9853;50.848;4.108;2023-11-21T11:09:26;13.40;99.90
19435;DHT22;9853;50.848;4.108;2023-11-21T11:11:28;13.50;99.90
19435;DHT22;9853;50.848;4.108;2023-11-21T11:13:31;13.50;99.90
19435;DHT22;9853;50.848;4.108;2023-11-21T11:15:32;13.50;99.90
19435;DHT22;9853;50.848;4.108;2023-11-21T11:17:34;13.40;99.90
19435;DHT22;9853;50.848;4.108;2023-11-21T11:19:35;13.80;99.90
19435;DHT22;9853;50.848;4.108;2023-11-21T11:34:15;13.00;99.90
19435;DHT22;9853;50.848;4.108;2023-11-21T11:36:44;12.90;99.90
19435;DHT22;9853;50.848;4.108;2023-11-21T11:38:48;13.60;99.90
19435;DHT22;9853;50.848;4.108;2023-11-21T11:40:53;13.60;99.90
19435;DHT22;9853;50.848;4.108;2023-11-21T11:43:01;13.70;99.90
19435;DHT22;9853;50.848;4.108;2023-11-21T11:45:17;13.60;99.90
19435;DHT22;9853;50.848;4.108;2023-11-21T11:47:27;14.00;99.90
19435;DHT22;9853;50.848;4.108;2023-11-21T11:49:33;13.90;99.90
19435;DHT22;9853;50.848;4.108;2023-11-21T11:51:34;13.80;99.90
19435;DHT22;9853;50.848;4.108;2023-11-21T11:53:38;13.50;99.90
19435;DHT22;9853;50.848;4.108;2023-11-21T11:55:40;13.10;99.90
19435;DHT22;9853;50.848;4.108;2023-11-21T11:57:42;13.10;99.90
19435;DHT22;9853;50.848;4.108;2023-11-21T12:02:23;13.40;99.90
19435;DHT22;9853;50.848;4.108;2023-11-21T12:04:25;13.30;99.90
19435;DHT22;9853;50.848;4.108;2023-11-21T12:06:35;13.00;99.90
19435;DHT22;9853;50.848;4.108;2023-11-21T12:08:36;13.40;99.90
19435;DHT22;9853;50.848;4.108;2023-11-21T12:10:38;13.50;99.90
19435;DHT22;9853;50.848;4.108;2023-11-21T12:12:43;13.50;99.90
19435;DHT22;9853;50.848;4.108;2023-11-21T12:14:46;13.40;99.90
19435;DHT22;9853;50.848;4.108;2023-11-21T12:16:47;13.20;99.90
19435;DHT22;9853;50.848;4.108;2023-11-21T12:18:50;13.20;99.90
19435;DHT22;9853;50.848;4.108;2023-11-21T12:20:51;13.10;99.90
19435;DHT22;9853;50.848;4.108;2023-11-21T12:22:56;13.10;99.90
19435;DHT22;9853;50.848;4.108;2023-11-21T12:24:59;13.10;99.90
19435;DHT22;9853;50.848;4.108;2023-11-21T12:27:00;12.90;99.90
19435;DHT22;9853;50.848;4.108;2023-11-21T12:29:01;12.80;99.90
19435;DHT22;9853;50.848;4.108;2023-11-21T12:31:05;12.80;99.90
19435;DHT22;9853;50.848;4.108;2023-11-21T12:33:07;12.80;99.90
19435;DHT22;9853;50.848;4.108;2023-11-21T12:35:09;12.80;99.90
19435;DHT22;9853;50.848;4.108;2023-11-21T12:37:11;12.70;99.90
19435;DHT22;9853;50.848;4.108;2023-11-21T12:39:12;12.60;99.90
19435;DHT22;9853;50.848;4.108;2023-11-21T12:41:16;12.40;99.90
19435;DHT22;9853;50.848;4.108;2023-11-21T12:43:17;12.20;99.90
19435;DHT22;9853;50.848;4.108;2023-11-21T12:45:25;12.20;99.90
19435;DHT22;9853;50.848;4.108;2023-11-21T12:47:27;12.00;99.90
19435;DHT22;9853;50.848;4.108;2023-11-21T12:49:28;12.10;99.90
19435;DHT22;9853;50.848;4.108;2023-11-21T12:51:29;12.30;99.90
19435;DHT22;9853;50.848;4.108;2023-11-21T12:53:30;12.30;99.90
19435;DHT22;9853;50.848;4.108;2023-11-21T12:55:37;12.30;99.90
19435;DHT22;9853;50.848;4.108;2023-11-21T12:57:41;12.20;99.90
19435;DHT22;9853;50.848;4.108;2023-11-21T12:59:46;12.20;99.90
19435;DHT22;9853;50.848;4.108;2023-11-21T13:01:47;12.40;99.90
19435;DHT22;9853;50.848;4.108;2023-11-21T13:03:48;12.50;99.90
19435;DHT22;9853;50.848;4.108;2023-11-21T13:05:52;12.50;99.90
19435;DHT22;9853;50.848;4.108;2023-11-21T13:07:57;12.60;99.90
19435;DHT22;9853;50.848;4.108;2023-11-21T13:09:58;12.50;99.90
19435;DHT22;9853;50.848;4.108;2023-11-21T13:12:02;12.30;99.90
19435;DHT22;9853;50.848;4.108;2023-11-21T13:14:05;12.20;99.90
19435;DHT22;9853;50.848;4.108;2023-11-21T13:16:06;12.40;99.90
19435;DHT22;9853;50.848;4.108;2023-11-21T13:18:08;12.50;99.90